sensor_id;sensor_type;location;lat;lon;timestamp;P1;durP1;ratioP1;P2;durP2;ratioP2
64403;SDS011;50726;54.912;-8.392;2023-01-10T03:33:16;134.38;;;120.47;;
64403;SDS011;50726;54.912;-8.392;2023-01-10T03:43:45;134.10;;;119.78;;
64403;SDS011;50726;54.912;-8.392;2023-01-10T03:49:36;130.80;;;115.22;;
64403;SDS011;50726;54.912;-8.392;2023-01-10T03:52:06;130.95;;;117.15;;
64403;SDS011;50726;54.912;-8.392;2023-01-10T03:54:35;129.80;;;115.80;;
64403;SDS011;50726;54.912;-8.392;2023-01-10T03:57:00;126.25;;;112.75;;
64403;SDS011;50726;54.912;-8.392;2023-01-10T03:59:27;124.75;;;110.55;;
64403;SDS011;50726;54.912;-8.392;2023-01-10T04:04:27;121.55;;;108.32;;
64403;SDS011;50726;54.912;-8.392;2023-01-10T04:06:56;129.18;;;111.45;;
64403;SDS011;50726;54.912;-8.392;2023-01-10T04:09:33;123.45;;;107.80;;
64403;SDS011;50726;54.912;-8.392;2023-01-10T04:12:00;122.15;;;104.85;;
64403;SDS011;50726;54.912;-8.392;2023-01-10T04:14:28;124.00;;;108.63;;
64403;SDS011;50726;54.912;-8.392;2023-01-10T04:24:48;123.95;;;110.47;;
64403;SDS011;50726;54.912;-8.392;2023-01-10T04:27:19;129.38;;;114.13;;
64403;SDS011;50726;54.912;-8.392;2023-01-10T04:29:46;128.35;;;114.35;;
64403;SDS011;50726;54.912;-8.392;2023-01-10T04:32:19;136.20;;;122.05;;
64403;SDS011;50726;54.912;-8.392;2023-01-10T04:34:47;140.85;;;126.03;;
64403;SDS011;50726;54.912;-8.392;2023-01-10T04:37:14;137.38;;;120.97;;
64403;SDS011;50726;54.912;-8.392;2023-01-10T04:42:10;137.73;;;123.50;;
64403;SDS011;50726;54.912;-8.392;2023-01-10T04:44:54;135.90;;;121.50;;
64403;SDS011;50726;54.912;-8.392;2023-01-10T04:47:30;140.15;;;125.68;;
64403;SDS011;50726;54.912;-8.392;2023-01-10T04:50:20;134.30;;;119.22;;
64403;SDS011;50726;54.912;-8.392;2023-01-10T04:52:50;141.95;;;126.00;;
64403;SDS011;50726;54.912;-8.392;2023-01-10T04:55:18;132.05;;;117.95;;
64403;SDS011;50726;54.912;-8.392;2023-01-10T04:57:48;139.30;;;119.97;;
64403;SDS011;50726;54.912;-8.392;2023-01-10T05:00:20;141.68;;;126.53;;
64403;SDS011;50726;54.912;-8.392;2023-01-10T05:02:56;138.07;;;123.72;;
64403;SDS011;50726;54.912;-8.392;2023-01-10T05:05:25;140.73;;;126.53;;
64403;SDS011;50726;54.912;-8.392;2023-01-10T05:07:57;137.27;;;123.38;;
64403;SDS011;50726;54.912;-8.392;2023-01-10T05:10:24;140.23;;;125.72;;
64403;SDS011;50726;54.912;-8.392;2023-01-10T05:12:53;156.07;;;140.48;;
64403;SDS011;50726;54.912;-8.392;2023-01-10T05:15:22;152.15;;;136.75;;
64403;SDS011;50726;54.912;-8.392;2023-01-10T05:17:56;153.60;;;138.55;;
64403;SDS011;50726;54.912;-8.392;2023-01-10T05:22:54;154.93;;;139.75;;
64403;SDS011;50726;54.912;-8.392;2023-01-10T05:25:22;156.32;;;141.13;;
64403;SDS011;50726;54.912;-8.392;2023-01-10T05:27:48;156.52;;;140.70;;
64403;SDS011;50726;54.912;-8.392;2023-01-10T05:30:14;155.98;;;140.82;;
64403;SDS011;50726;54.912;-8.392;2023-01-10T05:32:39;148.15;;;133.55;;
64403;SDS011;50726;54.912;-8.392;2023-01-10T05:35:06;144.70;;;130.35;;
64403;SDS011;50726;54.912;-8.392;2023-01-10T05:37:32;147.05;;;132.50;;
64403;SDS011;50726;54.912;-8.392;2023-01-10T05:39:59;147.30;;;132.82;;
64403;SDS011;50726;54.912;-8.392;2023-01-10T05:42:24;149.38;;;134.98;;
64403;SDS011;50726;54.912;-8.392;2023-01-10T05:44:50;146.90;;;132.70;;
64403;SDS011;50726;54.912;-8.392;2023-01-10T05:47:16;151.52;;;136.93;;
64403;SDS011;50726;54.912;-8.392;2023-01-10T05:49:42;153.70;;;139.13;;
64403;SDS011;50726;54.912;-8.392;2023-01-10T05:52:07;150.60;;;135.60;;
64403;SDS011;50726;54.912;-8.392;2023-01-10T05:54:33;147.02;;;132.73;;
64403;SDS011;50726;54.912;-8.392;2023-01-10T05:56:59;149.45;;;134.88;;
64403;SDS011;50726;54.912;-8.392;2023-01-10T05:59:25;146.32;;;132.23;;
64403;SDS011;50726;54.912;-8.392;2023-01-10T06:01:51;148.60;;;134.30;;
64403;SDS011;50726;54.912;-8.392;2023-01-10T06:04:16;141.60;;;127.45;;
64403;SDS011;50726;54.912;-8.392;2023-01-10T06:06:42;137.20;;;123.70;;
64403;SDS011;50726;54.912;-8.392;2023-01-10T06:09:08;140.82;;;127.18;;
64403;SDS011;50726;54.912;-8.392;2023-01-10T06:11:38;137.82;;;124.32;;
64403;SDS011;50726;54.912;-8.392;2023-01-10T06:14:04;138.38;;;124.88;;
64403;SDS011;50726;54.912;-8.392;2023-01-10T06:16:33;135.63;;;122.53;;
64403;SDS011;50726;54.912;-8.392;2023-01-10T06:18:58;133.23;;;120.20;;
64403;SDS011;50726;54.912;-8.392;2023-01-10T06:21:24;134.02;;;121.00;;
64403;SDS011;50726;54.912;-8.392;2023-01-10T06:23:50;136.07;;;122.93;;
64403;SDS011;50726;54.912;-8.392;2023-01-10T06:26:20;132.38;;;119.53;;
64403;SDS011;50726;54.912;-8.392;2023-01-10T06:28:45;132.40;;;119.63;;
64403;SDS011;50726;54.912;-8.392;2023-01-10T06:31:14;133.15;;;120.30;;
64403;SDS011;50726;54.912;-8.392;2023-01-10T06:33:39;126.63;;;114.18;;
64403;SDS011;50726;54.912;-8.392;2023-01-10T06:36:05;131.68;;;118.80;;
64403;SDS011;50726;54.912;-8.392;2023-01-10T06:38:33;124.15;;;111.88;;
64403;SDS011;50726;54.912;-8.392;2023-01-10T06:41:07;126.03;;;113.63;;
64403;SDS011;50726;54.912;-8.392;2023-01-10T06:43:49;124.07;;;111.93;;
64403;SDS011;50726;54.912;-8.392;2023-01-10T06:46:18;119.45;;;107.57;;
64403;SDS011;50726;54.912;-8.392;2023-01-10T06:48:51;122.95;;;110.82;;
64403;SDS011;50726;54.912;-8.392;2023-01-10T06:51:17;116.10;;;104.05;;
64403;SDS011;50726;54.912;-8.392;2023-01-10T06:53:43;118.05;;;106.07;;
64403;SDS011;50726;54.912;-8.392;2023-01-10T06:56:10;118.32;;;106.47;;
64403;SDS011;50726;54.912;-8.392;2023-01-10T06:58:36;106.95;;;95.90;;
64403;SDS011;50726;54.912;-8.392;2023-01-10T07:01:04;96.38;;;86.43;;
64403;SDS011;50726;54.912;-8.392;2023-01-10T07:03:40;105.40;;;94.45;;
64403;SDS011;50726;54.912;-8.392;2023-01-10T07:06:06;108.38;;;96.95;;
64403;SDS011;50726;54.912;-8.392;2023-01-10T07:08:36;104.38;;;93.68;;
64403;SDS011;50726;54.912;-8.392;2023-01-10T07:11:04;101.38;;;90.88;;
64403;SDS011;50726;54.912;-8.392;2023-01-10T07:13:30;93.72;;;83.65;;
64403;SDS011;50726;54.912;-8.392;2023-01-10T07:16:06;99.30;;;88.80;;
64403;SDS011;50726;54.912;-8.392;2023-01-10T07:18:35;99.47;;;89.07;;
64403;SDS011;50726;54.912;-8.392;2023-01-10T07:21:02;99.15;;;88.47;;
64403;SDS011;50726;54.912;-8.392;2023-01-10T07:25:56;97.38;;;86.93;;
64403;SDS011;50726;54.912;-8.392;2023-01-10T07:28:23;95.88;;;85.45;;
64403;SDS011;50726;54.912;-8.392;2023-01-10T07:30:49;101.78;;;90.70;;
64403;SDS011;50726;54.912;-8.392;2023-01-10T07:33:14;102.50;;;88.78;;
64403;SDS011;50726;54.912;-8.392;2023-01-10T07:35:40;124.40;;;93.07;;
64403;SDS011;50726;54.912;-8.392;2023-01-10T07:38:06;116.85;;;97.43;;
64403;SDS011;50726;54.912;-8.392;2023-01-10T07:40:33;120.07;;;93.88;;
64403;SDS011;50726;54.912;-8.392;2023-01-10T07:42:59;108.57;;;92.18;;
64403;SDS011;50726;54.912;-8.392;2023-01-10T07:45:26;117.45;;;86.88;;
64403;SDS011;50726;54.912;-8.392;2023-01-10T07:47:59;123.43;;;89.07;;
64403;SDS011;50726;54.912;-8.392;2023-01-10T07:50:28;127.97;;;88.60;;
64403;SDS011;50726;54.912;-8.392;2023-01-10T07:52:59;103.45;;;88.43;;
64403;SDS011;50726;54.912;-8.392;2023-01-10T07:55:27;96.07;;;85.82;;
64403;SDS011;50726;54.912;-8.392;2023-01-10T07:57:53;101.22;;;84.90;;
64403;SDS011;50726;54.912;-8.392;2023-01-10T08:00:22;100.07;;;82.93;;
64403;SDS011;50726;54.912;-8.392;2023-01-10T08:02:54;94.88;;;84.57;;
64403;SDS011;50726;54.912;-8.392;2023-01-10T08:05:21;96.78;;;86.05;;
64403;SDS011;50726;54.912;-8.392;2023-01-10T08:07:50;98.75;;;87.68;;
64403;SDS011;50726;54.912;-8.392;2023-01-10T08:10:16;98.05;;;87.55;;
64403;SDS011;50726;54.912;-8.392;2023-01-10T08:12:42;97.57;;;87.28;;
64403;SDS011;50726;54.912;-8.392;2023-01-10T08:15:08;94.18;;;83.28;;
64403;SDS011;50726;54.912;-8.392;2023-01-10T08:17:34;96.40;;;85.95;;
64403;SDS011;50726;54.912;-8.392;2023-01-10T08:20:03;107.65;;;86.80;;
64403;SDS011;50726;54.912;-8.392;2023-01-10T08:22:30;96.97;;;86.53;;
64403;SDS011;50726;54.912;-8.392;2023-01-10T08:24:55;110.47;;;87.18;;
64403;SDS011;50726;54.912;-8.392;2023-01-10T08:27:21;107.25;;;89.30;;
64403;SDS011;50726;54.912;-8.392;2023-01-10T08:29:47;98.05;;;85.00;;
64403;SDS011;50726;54.912;-8.392;2023-01-10T08:32:13;101.22;;;90.32;;
64403;SDS011;50726;54.912;-8.392;2023-01-10T08:34:38;104.28;;;90.20;;
64403;SDS011;50726;54.912;-8.392;2023-01-10T08:37:04;102.22;;;91.25;;
64403;SDS011;50726;54.912;-8.392;2023-01-10T08:39:30;97.45;;;86.68;;
64403;SDS011;50726;54.912;-8.392;2023-01-10T08:44:31;106.53;;;89.38;;
64403;SDS011;50726;54.912;-8.392;2023-01-10T08:46:57;100.45;;;88.95;;
64403;SDS011;50726;54.912;-8.392;2023-01-10T08:49:22;123.30;;;90.53;;
64403;SDS011;50726;54.912;-8.392;2023-01-10T08:51:48;100.07;;;88.60;;
64403;SDS011;50726;54.912;-8.392;2023-01-10T08:54:17;103.70;;;91.68;;
64403;SDS011;50726;54.912;-8.392;2023-01-10T08:56:43;142.43;;;90.28;;
64403;SDS011;50726;54.912;-8.392;2023-01-10T08:59:09;99.97;;;89.38;;
64403;SDS011;50726;54.912;-8.392;2023-01-10T09:01:34;111.00;;;77.13;;
64403;SDS011;50726;54.912;-8.392;2023-01-10T09:04:00;109.55;;;74.43;;
64403;SDS011;50726;54.912;-8.392;2023-01-10T09:06:26;100.32;;;75.35;;
64403;SDS011;50726;54.912;-8.392;2023-01-10T09:08:52;109.03;;;79.75;;
64403;SDS011;50726;54.912;-8.392;2023-01-10T09:11:21;83.40;;;72.15;;
64403;SDS011;50726;54.912;-8.392;2023-01-10T09:13:49;87.50;;;74.78;;
64403;SDS011;50726;54.912;-8.392;2023-01-10T09:16:16;83.60;;;75.00;;
64403;SDS011;50726;54.912;-8.392;2023-01-10T09:18:45;89.30;;;79.07;;
64403;SDS011;50726;54.912;-8.392;2023-01-10T09:21:11;83.55;;;74.63;;
64403;SDS011;50726;54.912;-8.392;2023-01-10T09:23:37;80.88;;;71.88;;
64403;SDS011;50726;54.912;-8.392;2023-01-10T09:26:04;81.50;;;70.65;;
64403;SDS011;50726;54.912;-8.392;2023-01-10T09:28:31;76.03;;;67.13;;
64403;SDS011;50726;54.912;-8.392;2023-01-10T09:30:57;74.68;;;64.72;;
64403;SDS011;50726;54.912;-8.392;2023-01-10T09:33:25;102.45;;;66.22;;
64403;SDS011;50726;54.912;-8.392;2023-01-10T09:35:51;77.75;;;69.07;;
64403;SDS011;50726;54.912;-8.392;2023-01-10T09:38:17;80.43;;;67.43;;
64403;SDS011;50726;54.912;-8.392;2023-01-10T09:52:36;84.93;;;60.20;;
64403;SDS011;50726;54.912;-8.392;2023-01-10T09:55:49;74.35;;;60.65;;
64403;SDS011;50726;54.912;-8.392;2023-01-10T09:58:00;93.45;;;61.15;;
64403;SDS011;50726;54.912;-8.392;2023-01-10T10:00:36;87.43;;;60.40;;
64403;SDS011;50726;54.912;-8.392;2023-01-10T10:05:53;90.45;;;57.55;;
64403;SDS011;50726;54.912;-8.392;2023-01-10T10:08:18;114.53;;;58.05;;
64403;SDS011;50726;54.912;-8.392;2023-01-10T10:21:25;88.40;;;61.17;;
64403;SDS011;50726;54.912;-8.392;2023-01-10T10:29:21;76.07;;;60.55;;
64403;SDS011;50726;54.912;-8.392;2023-01-10T10:34:50;73.07;;;60.58;;
64403;SDS011;50726;54.912;-8.392;2023-01-10T10:37:27;87.60;;;67.50;;
64403;SDS011;50726;54.912;-8.392;2023-01-10T10:42:34;83.10;;;69.45;;
64403;SDS011;50726;54.912;-8.392;2023-01-10T10:45:28;81.75;;;71.75;;
64403;SDS011;50726;54.912;-8.392;2023-01-10T10:48:12;86.93;;;77.45;;
64403;SDS011;50726;54.912;-8.392;2023-01-10T10:51:02;84.18;;;74.45;;
64403;SDS011;50726;54.912;-8.392;2023-01-10T10:53:49;88.37;;;78.77;;
64403;SDS011;50726;54.912;-8.392;2023-01-10T10:56:16;90.80;;;80.80;;
64403;SDS011;50726;54.912;-8.392;2023-01-10T10:58:46;93.28;;;83.18;;
64403;SDS011;50726;54.912;-8.392;2023-01-10T11:01:14;88.32;;;77.82;;
64403;SDS011;50726;54.912;-8.392;2023-01-10T11:03:47;85.40;;;76.25;;
64403;SDS011;50726;54.912;-8.392;2023-01-10T11:06:18;89.78;;;80.50;;
64403;SDS011;50726;54.912;-8.392;2023-01-10T11:08:46;77.20;;;68.80;;
64403;SDS011;50726;54.912;-8.392;2023-01-10T11:16:26;77.90;;;69.38;;
64403;SDS011;50726;54.912;-8.392;2023-01-10T11:22:05;105.00;;;82.90;;
64403;SDS011;50726;54.912;-8.392;2023-01-10T11:24:35;93.70;;;83.50;;
64403;SDS011;50726;54.912;-8.392;2023-01-10T11:27:18;94.45;;;84.10;;
64403;SDS011;50726;54.912;-8.392;2023-01-10T11:29:51;94.50;;;84.82;;
64403;SDS011;50726;54.912;-8.392;2023-01-10T11:32:22;92.25;;;82.78;;
64403;SDS011;50726;54.912;-8.392;2023-01-10T11:34:56;83.10;;;63.25;;
64403;SDS011;50726;54.912;-8.392;2023-01-10T11:37:30;78.85;;;58.75;;
64403;SDS011;50726;54.912;-8.392;2023-01-10T11:40:21;97.28;;;87.45;;
64403;SDS011;50726;54.912;-8.392;2023-01-10T11:42:50;97.78;;;87.25;;
64403;SDS011;50726;54.912;-8.392;2023-01-10T11:45:30;102.22;;;91.32;;
64403;SDS011;50726;54.912;-8.392;2023-01-10T11:48:08;103.57;;;91.90;;
64403;SDS011;50726;54.912;-8.392;2023-01-10T11:50:47;99.60;;;89.22;;
64403;SDS011;50726;54.912;-8.392;2023-01-10T11:53:44;98.28;;;85.75;;
64403;SDS011;50726;54.912;-8.392;2023-01-10T11:56:34;88.45;;;79.28;;
64403;SDS011;50726;54.912;-8.392;2023-01-10T12:07:07;99.63;;;90.00;;
64403;SDS011;50726;54.912;-8.392;2023-01-10T12:12:51;101.67;;;91.00;;
64403;SDS011;50726;54.912;-8.392;2023-01-10T12:15:40;80.25;;;63.85;;
64403;SDS011;50726;54.912;-8.392;2023-01-10T12:18:15;85.55;;;61.15;;
64403;SDS011;50726;54.912;-8.392;2023-01-10T12:21:05;79.63;;;61.70;;
64403;SDS011;50726;54.912;-8.392;2023-01-10T12:23:42;81.47;;;65.00;;
64403;SDS011;50726;54.912;-8.392;2023-01-10T12:26:12;82.80;;;69.47;;
64403;SDS011;50726;54.912;-8.392;2023-01-10T12:28:50;81.20;;;72.57;;
64403;SDS011;50726;54.912;-8.392;2023-01-10T12:31:25;85.63;;;69.57;;
64403;SDS011;50726;54.912;-8.392;2023-01-10T12:39:30;84.20;;;65.90;;
64403;SDS011;50726;54.912;-8.392;2023-01-10T12:42:10;74.55;;;66.47;;
64403;SDS011;50726;54.912;-8.392;2023-01-10T12:45:07;82.72;;;60.13;;
64403;SDS011;50726;54.912;-8.392;2023-01-10T12:53:29;78.95;;;58.78;;
64403;SDS011;50726;54.912;-8.392;2023-01-10T12:56:03;85.25;;;62.50;;
64403;SDS011;50726;54.912;-8.392;2023-01-10T12:58:52;80.93;;;66.10;;
64403;SDS011;50726;54.912;-8.392;2023-01-10T13:01:25;78.85;;;59.03;;
64403;SDS011;50726;54.912;-8.392;2023-01-10T13:03:56;73.10;;;57.08;;
64403;SDS011;50726;54.912;-8.392;2023-01-10T13:06:33;109.78;;;99.30;;
64403;SDS011;50726;54.912;-8.392;2023-01-10T13:09:06;112.35;;;101.80;;
64403;SDS011;50726;54.912;-8.392;2023-01-10T13:17:41;114.88;;;104.47;;
64403;SDS011;50726;54.912;-8.392;2023-01-10T13:22:53;104.43;;;94.47;;
64403;SDS011;50726;54.912;-8.392;2023-01-10T13:25:30;110.75;;;99.95;;
64403;SDS011;50726;54.912;-8.392;2023-01-10T13:30:59;182.10;;;166.27;;
64403;SDS011;50726;54.912;-8.392;2023-01-10T13:33:27;264.48;;;243.55;;
64403;SDS011;50726;54.912;-8.392;2023-01-10T13:36:10;311.73;;;286.48;;
64403;SDS011;50726;54.912;-8.392;2023-01-10T13:38:50;301.85;;;277.50;;
64403;SDS011;50726;54.912;-8.392;2023-01-10T13:42:08;283.88;;;261.55;;
64403;SDS011;50726;54.912;-8.392;2023-01-10T14:03:41;409.17;;;372.67;;
64403;SDS011;50726;54.912;-8.392;2023-01-10T14:06:20;421.05;;;382.88;;
64403;SDS011;50726;54.912;-8.392;2023-01-10T14:11:52;529.08;;;479.40;;
64403;SDS011;50726;54.912;-8.392;2023-01-10T14:17:11;804.75;;;621.75;;
64403;SDS011;50726;54.912;-8.392;2023-01-10T14:19:40;1547.30;;;898.80;;
64403;SDS011;50726;54.912;-8.392;2023-01-10T14:22:20;1999.90;;;999.90;;
64403;SDS011;50726;54.912;-8.392;2023-01-10T14:24:51;1999.90;;;999.90;;
64403;SDS011;50726;54.912;-8.392;2023-01-10T14:27:20;1999.90;;;999.90;;
64403;SDS011;50726;54.912;-8.392;2023-01-10T14:29:59;1999.90;;;999.90;;
64403;SDS011;50726;54.912;-8.392;2023-01-10T14:32:37;1999.90;;;999.90;;
64403;SDS011;50726;54.912;-8.392;2023-01-10T14:35:20;1999.90;;;999.90;;
64403;SDS011;50726;54.912;-8.392;2023-01-10T14:40:27;1999.90;;;999.90;;
64403;SDS011;50726;54.912;-8.392;2023-01-10T14:43:13;1999.90;;;999.90;;
64403;SDS011;50726;54.912;-8.392;2023-01-10T14:48:31;1999.90;;;999.90;;
64403;SDS011;50726;54.912;-8.392;2023-01-10T14:56:41;1999.90;;;999.90;;
64403;SDS011;50726;54.912;-8.392;2023-01-10T15:02:02;1999.90;;;999.90;;
64403;SDS011;50726;54.912;-8.392;2023-01-10T15:07:50;1999.90;;;999.90;;
64403;SDS011;50726;54.912;-8.392;2023-01-10T15:10:34;1999.90;;;999.90;;
64403;SDS011;50726;54.912;-8.392;2023-01-10T15:15:40;1999.90;;;999.90;;
64403;SDS011;50726;54.912;-8.392;2023-01-10T15:18:17;1999.90;;;999.90;;
64403;SDS011;50726;54.912;-8.392;2023-01-10T15:28:19;1999.90;;;999.90;;
64403;SDS011;50726;54.912;-8.392;2023-01-10T15:30:48;1999.90;;;999.90;;
64403;SDS011;50726;54.912;-8.392;2023-01-10T15:33:18;1999.90;;;999.90;;
64403;SDS011;50726;54.912;-8.392;2023-01-10T15:35:52;1999.90;;;999.90;;
64403;SDS011;50726;54.912;-8.392;2023-01-10T15:38:36;1999.90;;;999.90;;
64403;SDS011;50726;54.912;-8.392;2023-01-10T15:41:07;1999.90;;;999.90;;
64403;SDS011;50726;54.912;-8.392;2023-01-10T15:43:36;1999.90;;;999.90;;
64403;SDS011;50726;54.912;-8.392;2023-01-10T15:53:18;1999.90;;;999.90;;
64403;SDS011;50726;54.912;-8.392;2023-01-10T17:06:09;1999.90;;;999.90;;
64403;SDS011;50726;54.912;-8.392;2023-01-10T17:15:01;1999.90;;;999.90;;
64403;SDS011;50726;54.912;-8.392;2023-01-10T17:17:33;1999.90;;;999.90;;
64403;SDS011;50726;54.912;-8.392;2023-01-10T17:19:59;1999.90;;;999.90;;
64403;SDS011;50726;54.912;-8.392;2023-01-10T19:36:59;988.33;;;839.70;;
64403;SDS011;50726;54.912;-8.392;2023-01-10T19:39:27;897.08;;;802.78;;
64403;SDS011;50726;54.912;-8.392;2023-01-10T19:41:53;821.90;;;745.58;;
64403;SDS011;50726;54.912;-8.392;2023-01-10T19:44:18;656.67;;;592.58;;
64403;SDS011;50726;54.912;-8.392;2023-01-10T19:52:59;418.17;;;314.15;;
64403;SDS011;50726;54.912;-8.392;2023-01-10T19:55:24;395.23;;;271.05;;
64403;SDS011;50726;54.912;-8.392;2023-01-10T20:21:48;305.13;;;252.02;;
64403;SDS011;50726;54.912;-8.392;2023-01-10T23:06:39;1104.70;;;926.47;;
64403;SDS011;50726;54.912;-8.392;2023-01-10T23:09:05;1047.68;;;912.15;;
64403;SDS011;50726;54.912;-8.392;2023-01-10T23:11:30;1005.47;;;891.80;;
64403;SDS011;50726;54.912;-8.392;2023-01-10T23:13:56;981.75;;;873.22;;
64403;SDS011;50726;54.912;-8.392;2023-01-10T23:16:36;521.65;;;473.50;;
64403;SDS011;50726;54.912;-8.392;2023-01-10T23:34:03;392.08;;;355.95;;
